Time;durP1;ratioP1;P1;durP2;ratioP2;P2;SDS_P1;SDS_P2;PMS_P1;PMS_P2;Temp;Humidity;BMP_temperature;BMP_pressure;BME280_temperature;BME280_humidity;BME280_pressure;Samples;Min_cycle;Max_cycle;Signal;HPM_P1;HPM_P2
2024/03/25 00:01:00;;;;;;;2.28;1.20;;;;;;;3.67;100.00;97181.88;6100978;19;20070;-71
2024/03/25 00:03:00;;;;;;;1.75;1.20;;;;;;;3.61;100.00;97180.59;6102530;19;20010;-71
2024/03/25 00:05:00;;;;;;;1.90;1.30;;;;;;;3.66;100.00;97182.25;6101592;19;20326;-71
2024/03/25 00:07:01;;;;;;;1.67;1.23;;;;;;;3.66;100.00;97179.53;6101254;19;20009;-71
2024/03/25 00:09:03;;;;;;;2.00;1.52;;;;;;;3.67;100.00;97181.88;6101350;19;20002;-71
2024/03/25 00:11:03;;;;;;;3.65;1.45;;;;;;;3.58;100.00;97181.34;6109842;19;20090;-71
2024/03/25 00:13:04;;;;;;;2.20;1.20;;;;;;;3.59;100.00;97180.19;6109260;19;20333;-71
2024/03/25 00:15:04;;;;;;;1.83;1.35;;;;;;;3.62;100.00;97184.91;6109159;19;20002;-71
2024/03/25 00:17:05;;;;;;;2.92;1.52;;;;;;;3.63;100.00;97185.72;6107733;19;20013;-71
2024/03/25 00:19:05;;;;;;;2.83;1.50;;;;;;;3.60;100.00;97180.97;6108679;19;20010;-71
2024/03/25 00:21:06;;;;;;;2.85;1.58;;;;;;;3.56;100.00;97177.41;6108267;19;20217;-71
2024/03/25 00:23:07;;;;;;;2.22;1.40;;;;;;;3.57;100.00;97177.03;6109233;19;20031;-71
2024/03/25 00:25:08;;;;;;;2.38;1.35;;;;;;;3.69;100.00;97178.78;6109009;19;20389;-71
2024/03/25 00:27:08;;;;;;;4.03;1.65;;;;;;;3.69;100.00;97186.19;6107965;19;20074;-71
2024/03/25 00:29:09;;;;;;;2.38;1.60;;;;;;;3.69;100.00;97172.53;6110311;19;20324;-71
2024/03/25 00:31:09;;;;;;;3.67;1.80;;;;;;;3.65;100.00;97181.47;6110059;19;20018;-71
2024/03/25 00:33:10;;;;;;;4.38;1.77;;;;;;;3.70;100.00;97177.63;6108843;19;20040;-71
2024/03/25 00:35:11;;;;;;;2.35;1.88;;;;;;;3.69;100.00;97181.53;6107690;19;20018;-71
2024/03/25 00:37:11;;;;;;;4.72;1.90;;;;;;;3.74;100.00;97183.97;6106736;19;20396;-71
2024/03/25 00:39:11;;;;;;;2.78;1.25;;;;;;;3.70;100.00;97190.50;6109139;19;20066;-71
2024/03/25 00:41:12;;;;;;;3.20;1.58;;;;;;;3.71;100.00;97195.63;6109754;19;20014;-71
2024/03/25 00:43:12;;;;;;;4.22;2.03;;;;;;;3.77;100.00;97196.91;6106368;19;20011;-71
2024/03/25 00:45:12;;;;;;;3.05;1.60;;;;;;;3.78;100.00;97195.75;6108729;19;20010;-71
2024/03/25 00:47:13;;;;;;;3.50;1.40;;;;;;;3.77;100.00;97196.13;6107457;19;20011;-71
2024/03/25 00:49:13;;;;;;;3.88;1.58;;;;;;;3.77;100.00;97190.66;6108403;19;20018;-71
2024/03/25 00:51:14;;;;;;;2.40;1.42;;;;;;;3.75;100.00;97192.97;6107966;19;20066;-71
2024/03/25 00:53:14;;;;;;;2.72;1.50;;;;;;;3.78;100.00;97200.44;6107901;19;20003;-71
2024/03/25 00:55:15;;;;;;;3.55;1.92;;;;;;;3.77;100.00;97199.63;6109042;19;20475;-71
2024/03/25 00:57:15;;;;;;;2.60;1.42;;;;;;;3.81;100.00;97210.66;6107174;19;20349;-71
2024/03/25 00:59:16;;;;;;;3.97;1.48;;;;;;;3.82;100.00;97199.34;6108395;19;20022;-70
2024/03/25 01:01:16;;;;;;;5.00;1.50;;;;;;;3.79;100.00;97196.53;6108965;19;20389;-71
2024/03/25 01:03:17;;;;;;;6.38;1.65;;;;;;;3.79;100.00;97211.00;6107910;19;20006;-71
2024/03/25 01:05:18;;;;;;;3.13;2.00;;;;;;;3.81;100.00;97213.41;6108218;19;20014;-71
2024/03/25 01:07:18;;;;;;;2.72;2.05;;;;;;;3.81;100.00;97208.72;6106831;19;20078;-71
2024/03/25 01:09:18;;;;;;;2.40;1.38;;;;;;;3.83;100.00;97211.09;6109191;19;20010;-71
2024/03/25 01:11:19;;;;;;;3.13;1.75;;;;;;;3.81;100.00;97210.66;6107441;19;20006;-71
2024/03/25 01:13:19;;;;;;;2.75;1.25;;;;;;;3.79;100.00;97216.47;6107993;19;20007;-71
2024/03/25 01:15:19;;;;;;;3.78;1.70;;;;;;;3.74;100.00;97216.78;6107943;19;20002;-71
2024/03/25 01:17:19;;;;;;;3.78;1.60;;;;;;;3.73;100.00;97203.47;6106785;19;20006;-71
2024/03/25 01:19:21;;;;;;;4.45;1.88;;;;;;;3.73;100.00;97211.69;6107388;19;20009;-71
2024/03/25 01:21:21;;;;;;;3.63;1.70;;;;;;;3.66;100.00;97228.75;6108537;19;20031;-71
2024/03/25 01:23:22;;;;;;;3.10;1.88;;;;;;;3.65;100.00;97221.72;6108060;19;20044;-71
2024/03/25 01:25:22;;;;;;;7.50;1.95;;;;;;;3.63;100.00;97224.78;6108587;19;20027;-71
2024/03/25 01:27:22;;;;;;;3.03;1.33;;;;;;;3.60;100.00;97213.78;6105493;19;20010;-71
2024/03/25 01:29:22;;;;;;;2.25;1.50;;;;;;;3.60;100.00;97214.59;6109174;19;20458;-71
2024/03/25 01:31:23;;;;;;;2.72;1.60;;;;;;;3.61;100.00;97213.44;6107629;19;20014;-71
2024/03/25 01:33:23;;;;;;;6.55;1.73;;;;;;;3.64;100.00;97212.72;6107853;19;20017;-71
2024/03/25 01:35:23;;;;;;;3.42;1.60;;;;;;;3.56;100.00;97204.75;6107802;19;20010;-71
2024/03/25 01:37:24;;;;;;;5.28;1.70;;;;;;;3.55;100.00;97206.66;6106391;19;20010;-71
2024/03/25 01:39:24;;;;;;;4.13;1.60;;;;;;;3.47;100.00;97212.38;6107796;19;20018;-71
2024/03/25 01:41:24;;;;;;;4.25;1.52;;;;;;;3.44;100.00;97210.38;6108063;19;20319;-71
2024/03/25 01:43:25;;;;;;;2.63;1.50;;;;;;;3.49;100.00;97210.88;6105321;19;20332;-71
2024/03/25 01:45:28;;;;;;;3.25;1.50;;;;;;;3.54;100.00;97213.28;6108034;19;20002;-71
2024/03/25 01:47:32;;;;;;;2.95;1.42;;;;;;;3.49;100.00;97215.53;6105990;19;20013;-71
2024/03/25 01:49:32;;;;;;;2.83;1.60;;;;;;;3.45;100.00;97220.16;6107131;19;20878;-71
2024/03/25 01:51:34;;;;;;;3.58;1.58;;;;;;;3.39;100.00;97214.16;6107076;19;20022;-71
2024/03/25 01:53:34;;;;;;;4.35;1.75;;;;;;;3.43;100.00;97214.25;6107265;19;20267;-71
2024/03/25 01:55:35;;;;;;;2.33;1.30;;;;;;;3.43;100.00;97225.97;6106509;19;20354;-71
2024/03/25 01:57:37;;;;;;;5.43;1.60;;;;;;;3.44;100.00;97232.25;6107466;19;20400;-71
2024/03/25 01:59:39;;;;;;;3.50;1.38;;;;;;;3.35;100.00;97221.53;6107293;19;20598;-71
2024/03/25 02:01:39;;;;;;;2.83;1.65;;;;;;;3.35;100.00;97232.47;6107161;19;20007;-71
2024/03/25 02:03:42;;;;;;;4.43;1.85;;;;;;;3.43;100.00;97230.66;6106109;19;20341;-71
2024/03/25 02:05:43;;;;;;;4.05;1.90;;;;;;;3.39;100.00;97238.78;6108050;19;20014;-71
2024/03/25 02:07:44;;;;;;;5.80;1.75;;;;;;;3.38;100.00;97245.41;6105216;19;20375;-71
2024/03/25 02:09:45;;;;;;;2.33;1.35;;;;;;;3.39;100.00;97246.97;6104523;19;20010;-71
2024/03/25 02:11:46;;;;;;;5.97;1.92;;;;;;;3.31;100.00;97248.81;6106820;19;20014;-71
2024/03/25 02:13:46;;;;;;;2.47;1.40;;;;;;;3.30;100.00;97252.66;6107404;19;20040;-71
2024/03/25 02:15:46;;;;;;;5.45;2.13;;;;;;;3.40;100.00;97261.47;6106008;19;20002;-71
2024/03/25 02:17:47;;;;;;;5.88;1.70;;;;;;;3.34;100.00;97260.97;6105249;19;20002;-71
2024/03/25 02:19:47;;;;;;;3.70;1.48;;;;;;;3.30;100.00;97254.59;6107179;19;19999;-71
2024/03/25 02:21:47;;;;;;;3.92;1.65;;;;;;;3.32;100.00;97255.06;6106850;19;20506;-71
2024/03/25 02:23:51;;;;;;;3.83;1.70;;;;;;;3.27;100.00;97271.75;6108670;19;20394;-71
2024/03/25 02:25:52;;;;;;;6.25;3.45;;;;;;;3.30;100.00;97271.00;6112632;19;20356;-71
2024/03/25 02:27:53;;;;;;;9.48;4.55;;;;;;;3.32;100.00;97274.19;6111028;19;20423;-71
2024/03/25 02:29:53;;;;;;;5.93;2.90;;;;;;;3.34;100.00;97267.22;6112615;19;20009;-71
2024/03/25 02:31:53;;;;;;;19.33;7.57;;;;;;;3.22;100.00;97261.88;6111780;19;20014;-71
2024/03/25 02:33:54;;;;;;;16.67;7.20;;;;;;;3.18;100.00;97271.97;6112263;19;20331;-71
2024/03/25 02:35:54;;;;;;;7.00;3.25;;;;;;;3.19;100.00;97276.28;6111250;19;20380;-71
2024/03/25 02:37:55;;;;;;;13.48;5.75;;;;;;;3.15;100.00;97272.69;6112188;19;20007;-71
2024/03/25 02:39:58;;;;;;;8.13;2.97;;;;;;;3.18;100.00;97269.22;6111902;19;20011;-71
2024/03/25 02:41:58;;;;;;;6.60;2.72;;;;;;;3.17;100.00;97286.78;6111995;19;20010;-71
2024/03/25 02:43:59;;;;;;;8.55;3.38;;;;;;;3.16;100.00;97282.47;6109662;19;20003;-71
2024/03/25 02:45:59;;;;;;;9.18;4.22;;;;;;;3.15;100.00;97282.81;6110557;19;20355;-71
2024/03/25 02:47:59;;;;;;;7.95;4.22;;;;;;;3.18;100.00;97287.56;6110772;19;20026;-71
2024/03/25 02:50:00;;;;;;;6.03;3.03;;;;;;;3.03;100.00;97287.25;6111603;19;20011;-71
2024/03/25 02:52:00;;;;;;;8.43;4.72;;;;;;;2.95;100.00;97287.44;6111931;19;20009;-71
2024/03/25 02:54:01;;;;;;;6.80;3.72;;;;;;;2.78;100.00;97294.09;6112402;19;20003;-71
2024/03/25 02:56:01;;;;;;;7.85;3.45;;;;;;;2.64;100.00;97283.63;6109873;19;20034;-71
2024/03/25 02:58:02;;;;;;;4.38;2.70;;;;;;;2.63;100.00;97292.19;6110287;19;20454;-72
2024/03/25 03:00:03;;;;;;;5.78;3.05;;;;;;;2.69;100.00;97294.28;6110665;19;20003;-72
2024/03/25 03:02:03;;;;;;;4.68;2.55;;;;;;;2.60;100.00;97299.16;6111136;19;20476;-72
2024/03/25 03:04:04;;;;;;;4.38;2.45;;;;;;;2.59;100.00;97292.13;6111101;19;19999;-71
2024/03/25 03:06:04;;;;;;;3.03;1.73;;;;;;;2.64;100.00;97300.03;6110081;19;20714;-71
2024/03/25 03:08:05;;;;;;;2.72;1.70;;;;;;;2.64;100.00;97300.03;6110340;19;20003;-71
2024/03/25 03:10:06;;;;;;;3.15;1.58;;;;;;;2.71;100.00;97302.13;6099310;19;20014;-71
2024/03/25 03:12:06;;;;;;;3.10;1.60;;;;;;;2.61;100.00;97302.69;6111254;19;20505;-71
2024/03/25 03:14:07;;;;;;;4.72;1.70;;;;;;;2.58;100.00;97314.31;6110012;19;20001;-71
2024/03/25 03:16:07;;;;;;;2.45;1.50;;;;;;;2.53;100.00;97315.38;6109384;19;20009;-71
2024/03/25 03:18:07;;;;;;;2.25;1.45;;;;;;;2.54;100.00;97325.13;6109225;19;20308;-71
2024/03/25 03:20:08;;;;;;;1.90;1.38;;;;;;;2.48;100.00;97335.56;6111157;19;20415;-71
2024/03/25 03:22:09;;;;;;;4.20;2.05;;;;;;;2.45;100.00;97332.72;6111105;19;20434;-71
2024/03/25 03:24:09;;;;;;;1.92;1.30;;;;;;;2.36;100.00;97326.66;6111190;19;20006;-71
2024/03/25 03:26:09;;;;;;;4.35;1.55;;;;;;;2.32;100.00;97306.66;6106158;19;20090;-71
2024/03/25 03:28:09;;;;;;;2.42;1.50;;;;;;;2.33;100.00;97308.25;6104993;19;19998;-72
2024/03/25 03:30:10;;;;;;;3.38;1.50;;;;;;;2.32;100.00;97318.38;6110748;19;20002;-71
2024/03/25 03:32:11;;;;;;;1.83;1.30;;;;;;;2.24;100.00;97308.44;6111353;19;20222;-71
2024/03/25 03:34:11;;;;;;;2.20;1.40;;;;;;;2.19;100.00;97312.19;6106437;19;20003;-71
2024/03/25 03:36:11;;;;;;;4.95;1.55;;;;;;;2.17;100.00;97316.44;6107838;19;20002;-71
2024/03/25 03:38:11;;;;;;;4.32;1.15;;;;;;;2.11;100.00;97309.66;6109495;19;19998;-71
2024/03/25 03:40:12;;;;;;;3.55;1.77;;;;;;;2.10;100.00;97319.75;6109388;19;20086;-71
2024/03/25 03:42:12;;;;;;;4.22;1.63;;;;;;;2.12;100.00;97313.94;6110987;19;20464;-71
2024/03/25 03:44:14;;;;;;;5.55;2.10;;;;;;;2.18;100.00;97312.56;6107948;19;19995;-71
2024/03/25 03:46:15;;;;;;;4.57;2.03;;;;;;;2.27;100.00;97315.13;6107414;19;20801;-71
2024/03/25 03:48:15;;;;;;;3.10;2.03;;;;;;;2.35;100.00;97316.88;6110065;19;20008;-71
2024/03/25 03:50:16;;;;;;;3.08;1.83;;;;;;;2.36;100.00;97311.06;6105404;19;20030;-71
2024/03/25 03:52:16;;;;;;;5.25;2.05;;;;;;;2.43;100.00;97321.38;6109080;19;20035;-71
2024/03/25 03:54:16;;;;;;;5.35;2.20;;;;;;;2.47;100.00;97331.22;6109923;19;20006;-71
2024/03/25 03:56:17;;;;;;;3.63;2.08;;;;;;;2.47;100.00;97333.16;6110554;19;20491;-71
2024/03/25 03:58:17;;;;;;;6.70;2.25;;;;;;;2.51;100.00;97343.03;6103564;19;20014;-71
2024/03/25 04:00:17;;;;;;;6.90;2.30;;;;;;;2.51;100.00;97334.84;6109064;19;20002;-71
2024/03/25 04:02:18;;;;;;;5.25;2.45;;;;;;;2.55;100.00;97351.28;6109842;19;20006;-71
2024/03/25 04:04:18;;;;;;;7.20;2.30;;;;;;;2.54;100.00;97344.25;6108054;19;20006;-71
2024/03/25 04:06:18;;;;;;;5.70;2.20;;;;;;;2.49;100.00;97339.88;6109546;19;20009;-71
2024/03/25 04:08:19;;;;;;;6.20;2.80;;;;;;;2.46;100.00;97354.19;6107025;19;20006;-71
2024/03/25 04:10:19;;;;;;;2.60;1.90;;;;;;;2.42;100.00;97358.00;6097577;19;20011;-71
2024/03/25 04:12:20;;;;;;;3.83;2.30;;;;;;;2.39;100.00;97351.28;6100794;19;20416;-71
2024/03/25 04:14:20;;;;;;;5.00;2.85;;;;;;;2.37;100.00;97352.78;6098056;19;20021;-71
2024/03/25 04:16:22;;;;;;;6.22;2.25;;;;;;;2.37;100.00;97358.25;6101231;19;20096;-71
2024/03/25 04:18:23;;;;;;;6.03;2.50;;;;;;;2.34;100.00;97348.84;6100135;19;20010;-71
2024/03/25 04:20:23;;;;;;;6.03;2.22;;;;;;;2.36;100.00;97345.75;6102416;19;20394;-71
2024/03/25 04:22:24;;;;;;;5.13;2.90;;;;;;;2.35;100.00;97355.09;6103025;19;20078;-71
2024/03/25 04:24:26;;;;;;;5.05;2.80;;;;;;;2.38;100.00;97357.91;6101926;19;20011;-71
2024/03/25 04:26:27;;;;;;;5.85;2.50;;;;;;;2.34;100.00;97348.06;6100434;19;20034;-71
2024/03/25 04:28:27;;;;;;;4.32;2.15;;;;;;;2.32;100.00;97356.59;6100551;19;20336;-71
2024/03/25 04:30:27;;;;;;;8.70;2.25;;;;;;;2.29;100.00;97349.09;6101255;19;20044;-71
2024/03/25 04:32:28;;;;;;;4.10;2.35;;;;;;;2.23;100.00;97354.03;6100809;19;20007;-71
2024/03/25 04:34:29;;;;;;;3.35;2.38;;;;;;;2.24;100.00;97350.16;6100951;19;20022;-72
2024/03/25 04:36:30;;;;;;;3.83;2.47;;;;;;;2.21;100.00;97360.97;6099114;19;20246;-71
2024/03/25 04:38:30;;;;;;;5.97;2.22;;;;;;;2.16;100.00;97359.31;6102254;19;20023;-71
2024/03/25 04:40:31;;;;;;;5.07;2.35;;;;;;;2.16;100.00;97355.78;6102192;19;20450;-71
2024/03/25 04:42:31;;;;;;;7.72;2.33;;;;;;;2.14;100.00;97355.31;6099235;19;20026;-71
2024/03/25 04:44:31;;;;;;;3.60;2.17;;;;;;;2.10;100.00;97368.09;6100310;19;20006;-71
2024/03/25 04:46:32;;;;;;;4.05;2.10;;;;;;;2.05;100.00;97357.41;6099436;19;20016;-71
2024/03/25 04:48:32;;;;;;;7.88;2.20;;;;;;;2.10;100.00;97359.91;6101699;19;20379;-71
2024/03/25 04:50:32;;;;;;;7.90;2.83;;;;;;;2.08;100.00;97371.16;6095826;19;20354;-71
2024/03/25 04:52:32;;;;;;;4.55;2.20;;;;;;;2.15;100.00;97365.91;6090889;19;20097;-71
2024/03/25 04:54:33;;;;;;;3.38;1.83;;;;;;;2.16;100.00;97372.16;6093228;19;20073;-70
2024/03/25 04:56:33;;;;;;;6.13;2.20;;;;;;;2.18;100.00;97362.47;6093413;19;20019;-71
2024/03/25 04:58:33;;;;;;;3.33;1.92;;;;;;;2.18;100.00;97378.84;6096387;19;20015;-71
2024/03/25 05:00:34;;;;;;;4.78;2.42;;;;;;;2.21;100.00;97359.03;6097715;19;20016;-71
2024/03/25 05:02:36;;;;;;;4.53;2.10;;;;;;;2.24;100.00;97366.53;6095429;19;20006;-71
2024/03/25 05:04:36;;;;;;;;;;;;;;;2.31;100.00;97365.91;6100121;19;20019;-71
2024/03/25 05:06:37;;;;;;;3.45;1.75;;;;;;;2.36;100.00;97370.31;6099936;19;20288;-71
2024/03/25 05:08:37;;;;;;;5.22;2.00;;;;;;;2.38;100.00;97363.34;6099172;19;20402;-71
2024/03/25 05:10:37;;;;;;;6.93;2.47;;;;;;;2.40;100.00;97372.00;6109624;19;20106;-71
2024/03/25 05:12:38;;;;;;;5.68;3.00;;;;;;;2.42;100.00;97366.19;6107961;19;20024;-71
2024/03/25 05:14:39;;;;;;;4.32;2.38;;;;;;;2.43;100.00;97360.38;6108536;19;20007;-71
2024/03/25 05:16:39;;;;;;;3.92;1.92;;;;;;;2.44;100.00;97364.69;6103099;19;20063;-71
2024/03/25 05:18:39;;;;;;;4.15;2.10;;;;;;;2.44;100.00;97370.16;6100699;19;20006;-71
2024/03/25 05:20:40;;;;;;;4.43;1.85;;;;;;;2.43;100.00;97365.84;6102002;19;20456;-71
2024/03/25 05:22:40;;;;;;;5.22;2.50;;;;;;;2.40;100.00;97382.13;6105209;19;20038;-71
2024/03/25 05:24:41;;;;;;;4.30;1.90;;;;;;;2.38;100.00;97387.13;6108427;19;20007;-71
2024/03/25 05:26:41;;;;;;;3.25;1.75;;;;;;;2.42;100.00;97388.81;6105814;19;20010;-71
2024/03/25 05:28:41;;;;;;;4.78;2.30;;;;;;;2.37;100.00;97386.34;6108066;19;20074;-71
2024/03/25 05:30:41;;;;;;;3.92;1.95;;;;;;;2.35;100.00;97388.63;6109811;19;20010;-71
2024/03/25 05:32:42;;;;;;;6.70;1.90;;;;;;;2.33;100.00;97403.78;6107670;19;20016;-71
2024/03/25 05:34:42;;;;;;;3.75;2.55;;;;;;;2.47;100.00;97401.41;6107829;19;20021;-71
2024/03/25 05:36:42;;;;;;;3.80;2.65;;;;;;;2.52;100.00;97398.44;6107400;19;20027;-71
2024/03/25 05:38:43;;;;;;;3.47;1.90;;;;;;;2.48;100.00;97395.63;6108357;19;20028;-71
2024/03/25 05:40:45;;;;;;;6.20;2.20;;;;;;;2.41;100.00;97408.28;6109102;19;20015;-71
2024/03/25 05:42:45;;;;;;;4.43;1.95;;;;;;;2.44;100.00;97404.84;6105989;19;20037;-71
2024/03/25 05:44:46;;;;;;;5.25;2.50;;;;;;;2.37;100.00;97415.56;6107714;19;20039;-71
2024/03/25 05:46:46;;;;;;;6.43;3.05;;;;;;;2.44;100.00;97413.03;6104547;19;20009;-72
2024/03/25 05:48:46;;;;;;;6.05;5.22;;;;;;;2.49;100.00;97413.59;6107448;19;20029;-71
2024/03/25 05:51:00;;;;;;;9.38;4.85;;;;;;;2.47;100.00;97409.59;6109854;19;20095;-71
2024/03/25 05:53:00;;;;;;;8.98;2.83;;;;;;;2.45;100.00;97411.91;6108781;19;20014;-71
2024/03/25 05:55:00;;;;;;;6.85;2.85;;;;;;;2.51;100.00;97415.97;6108718;19;20006;-71
2024/03/25 05:57:01;;;;;;;5.15;2.90;;;;;;;2.55;100.00;97419.56;6106842;19;20006;-71
2024/03/25 05:59:01;;;;;;;4.93;2.67;;;;;;;2.48;100.00;97422.94;6107317;19;20006;-71
2024/03/25 06:01:04;;;;;;;6.68;3.20;;;;;;;2.49;100.00;97440.88;6105456;19;20006;-71
2024/03/25 06:03:05;;;;;;;3.65;2.70;;;;;;;2.53;100.00;97441.75;6108313;19;20010;-71
2024/03/25 06:05:05;;;;;;;5.22;3.45;;;;;;;2.59;100.00;97438.78;6104112;19;20011;-71
2024/03/25 06:07:06;;;;;;;7.38;3.80;;;;;;;2.57;100.00;97452.00;6106668;19;20019;-71
2024/03/25 06:09:06;;;;;;;7.53;3.78;;;;;;;2.57;100.00;97452.00;6108228;19;20481;-71
2024/03/25 06:11:07;;;;;;;5.57;3.67;;;;;;;2.64;100.00;97455.69;6107443;19;20017;-71
2024/03/25 06:13:07;;;;;;;6.80;3.67;;;;;;;2.66;100.00;97467.06;6106144;19;20023;-71
2024/03/25 06:15:08;;;;;;;5.05;3.60;;;;;;;2.69;100.00;97458.16;6108151;19;20053;-71
2024/03/25 06:17:08;;;;;;;5.03;2.63;;;;;;;2.71;100.00;97455.88;6103287;19;20386;-71
2024/03/25 06:19:08;;;;;;;3.92;2.13;;;;;;;2.75;100.00;97461.44;6107740;19;20002;-71
2024/03/25 06:21:09;;;;;;;6.85;2.70;;;;;;;2.75;100.00;97455.97;6107886;19;20006;-71
2024/03/25 06:23:09;;;;;;;6.38;2.22;;;;;;;2.81;100.00;97460.84;6107790;19;20578;-71
2024/03/25 06:25:09;;;;;;;3.38;1.95;;;;;;;2.95;100.00;97468.56;6106890;19;20107;-71
2024/03/25 06:27:10;;;;;;;5.57;2.22;;;;;;;2.94;100.00;97467.00;6106597;19;20003;-71
2024/03/25 06:29:10;;;;;;;5.03;1.75;;;;;;;2.90;100.00;97468.06;6106082;19;20006;-71
2024/03/25 06:35:48;;;;;;;2.97;1.83;;;;;;;2.76;100.00;97473.94;6106550;19;20027;-71
2024/03/25 06:37:48;;;;;;;3.15;1.80;;;;;;;2.72;100.00;97471.09;6105029;19;20003;-71
2024/03/25 06:39:48;;;;;;;4.55;2.15;;;;;;;2.64;100.00;97476.75;6106996;19;20012;-71
2024/03/25 06:41:49;;;;;;;3.10;2.03;;;;;;;2.57;100.00;97465.66;6106984;19;20031;-71
2024/03/25 06:43:49;;;;;;;6.35;2.15;;;;;;;2.62;100.00;97477.09;6104961;19;20010;-71
2024/03/25 06:45:49;;;;;;;8.23;2.08;;;;;;;2.55;100.00;97474.16;6104012;19;20009;-71
2024/03/25 06:47:50;;;;;;;4.15;2.10;;;;;;;2.61;100.00;97489.16;6104559;19;20483;-71
2024/03/25 06:49:50;;;;;;;7.28;2.30;;;;;;;2.73;100.00;97488.28;6106797;19;20003;-71
2024/03/25 06:51:50;;;;;;;3.28;1.90;;;;;;;2.77;100.00;97492.72;6106911;19;20074;-71
2024/03/25 06:53:51;;;;;;;3.60;1.63;;;;;;;2.81;100.00;97492.78;6107002;19;20026;-71
2024/03/25 06:55:51;;;;;;;3.63;1.80;;;;;;;2.98;100.00;97488.94;6105184;19;20006;-71
2024/03/25 06:57:52;;;;;;;3.08;1.90;;;;;;;3.11;100.00;97493.19;6105323;19;20014;-71
2024/03/25 06:59:52;;;;;;;7.18;2.25;;;;;;;3.22;100.00;97491.47;6107022;19;20013;-71
2024/03/25 07:01:52;;;;;;;2.63;1.75;;;;;;;3.22;100.00;97496.94;6106506;19;20478;-71
2024/03/25 07:03:54;;;;;;;4.72;2.45;;;;;;;3.29;100.00;97494.41;6106029;19;20090;-71
2024/03/25 07:05:55;;;;;;;4.30;1.95;;;;;;;3.42;100.00;97502.50;6104992;19;20064;-71
2024/03/25 07:07:55;;;;;;;8.73;4.03;;;;;;;3.54;100.00;97503.19;6105725;19;20011;-71
2024/03/25 07:09:55;;;;;;;4.85;3.10;;;;;;;3.57;100.00;97498.97;6109740;19;20019;-71
2024/03/25 07:11:56;;;;;;;24.52;11.10;;;;;;;3.66;100.00;97496.84;6111895;19;20342;-71
2024/03/25 07:13:56;;;;;;;17.20;8.48;;;;;;;3.82;100.00;97488.59;6112532;19;20848;-71
2024/03/25 07:15:56;;;;;;;5.15;2.63;;;;;;;3.85;100.00;97485.91;6110214;19;20048;-71
2024/03/25 07:17:57;;;;;;;4.47;2.08;;;;;;;3.92;100.00;97491.53;6111274;19;20011;-71
2024/03/25 07:19:57;;;;;;;3.92;2.72;;;;;;;3.99;100.00;97492.84;6112042;19;20030;-71
2024/03/25 07:21:58;;;;;;;9.50;2.92;;;;;;;4.06;100.00;97496.53;6112112;19;20011;-71
2024/03/25 07:23:58;;;;;;;6.90;3.25;;;;;;;4.07;100.00;97500.06;6111094;19;20022;-71
2024/03/25 07:25:58;;;;;;;5.78;2.17;;;;;;;4.22;100.00;97500.00;6111045;19;20021;-71
2024/03/25 07:27:59;;;;;;;6.10;2.67;;;;;;;4.26;100.00;97508.28;6111173;19;20013;-71
2024/03/25 07:29:59;;;;;;;4.85;2.28;;;;;;;4.34;100.00;97511.97;6112301;19;20459;-71
2024/03/25 07:31:59;;;;;;;4.45;2.67;;;;;;;4.35;100.00;97508.88;6111135;19;20393;-71
2024/03/25 07:33:59;;;;;;;4.85;2.63;;;;;;;4.27;100.00;97507.13;6112227;19;20011;-71
2024/03/25 07:36:00;;;;;;;6.03;2.30;;;;;;;4.26;100.00;97513.75;6110146;19;20031;-71
2024/03/25 07:38:00;;;;;;;3.50;2.05;;;;;;;4.27;100.00;97520.03;6109684;19;20410;-71
2024/03/25 07:40:00;;;;;;;4.57;2.10;;;;;;;4.21;100.00;97522.25;6112138;19;20007;-71
2024/03/25 07:42:01;;;;;;;2.97;1.77;;;;;;;4.17;100.00;97519.44;6110545;19;20013;-71
2024/03/25 07:44:01;;;;;;;6.07;2.70;;;;;;;4.22;100.00;97524.66;6109601;19;20015;-71
2024/03/25 07:46:01;;;;;;;6.18;2.28;;;;;;;4.29;100.00;97521.25;6111240;19;20372;-71
2024/03/25 07:48:02;;;;;;;3.60;1.85;;;;;;;4.36;100.00;97526.09;6109643;19;20003;-71
2024/03/25 07:50:03;;;;;;;4.18;2.03;;;;;;;4.45;100.00;97535.66;6110570;19;20005;-71
2024/03/25 07:52:04;;;;;;;4.63;2.00;;;;;;;4.51;100.00;97542.44;6110915;19;19998;-71
2024/03/25 07:54:04;;;;;;;5.63;2.10;;;;;;;4.57;100.00;97534.75;6110289;19;20347;-71
2024/03/25 07:56:04;;;;;;;3.67;1.48;;;;;;;4.62;100.00;97531.69;6109516;19;20180;-71
2024/03/25 07:58:05;;;;;;;3.78;1.60;;;;;;;4.67;100.00;97542.38;6110366;19;20006;-71
2024/03/25 08:00:06;;;;;;;4.35;1.55;;;;;;;4.72;100.00;97547.56;6111084;19;20268;-71
2024/03/25 08:02:07;;;;;;;3.00;1.38;;;;;;;4.72;100.00;97549.53;6111624;19;20507;-71
2024/03/25 08:04:08;;;;;;;3.33;1.30;;;;;;;4.78;100.00;97545.31;6110635;19;20312;-71
2024/03/25 08:06:09;;;;;;;10.35;2.83;;;;;;;4.88;100.00;97560.38;6109323;19;20010;-71
2024/03/25 08:08:09;;;;;;;2.13;1.40;;;;;;;4.79;100.00;97555.13;6109413;19;20007;-71
2024/03/25 08:10:09;;;;;;;2.88;1.35;;;;;;;4.82;100.00;97556.34;6098167;19;20023;-70
2024/03/25 08:12:10;;;;;;;2.63;1.65;;;;;;;4.86;100.00;97560.72;6110490;19;20015;-71
2024/03/25 08:14:10;;;;;;;2.58;1.60;;;;;;;4.94;100.00;97547.97;6111458;19;20333;-71
2024/03/25 08:16:10;;;;;;;5.85;1.85;;;;;;;5.04;100.00;97566.53;6108851;19;20014;-71
2024/03/25 08:18:11;;;;;;;7.28;3.30;;;;;;;5.13;100.00;97561.66;6108962;19;19995;-71
2024/03/25 08:20:12;;;;;;;3.85;1.73;;;;;;;5.17;100.00;97564.44;6109096;19;20316;-71
2024/03/25 08:22:13;;;;;;;4.03;1.75;;;;;;;5.12;100.00;97567.47;6108656;19;20002;-71
2024/03/25 08:24:15;;;;;;;4.07;1.90;;;;;;;5.02;100.00;97561.44;6108476;19;20098;-71
2024/03/25 08:26:15;;;;;;;2.22;1.83;;;;;;;5.02;100.00;97558.69;6110059;19;20002;-71
2024/03/25 08:28:15;;;;;;;4.45;1.80;;;;;;;5.13;100.00;97574.53;6108974;19;20006;-71
2024/03/25 08:30:16;;;;;;;6.03;2.25;;;;;;;5.21;100.00;97563.38;6109818;19;19995;-71
2024/03/25 08:32:16;;;;;;;5.60;1.90;;;;;;;5.22;100.00;97567.69;6109790;19;20006;-71
2024/03/25 08:34:16;;;;;;;3.78;2.20;;;;;;;5.12;100.00;97568.25;6110425;19;20344;-71
2024/03/25 08:36:18;;;;;;;3.22;2.70;;;;;;;5.06;100.00;97567.78;6106895;19;19998;-71
2024/03/25 08:38:18;;;;;;;5.30;2.55;;;;;;;5.13;100.00;97569.88;6108807;19;20003;-71
2024/03/25 08:40:19;;;;;;;3.83;2.10;;;;;;;5.14;100.00;97568.72;6109786;19;20005;-71
2024/03/25 08:42:21;;;;;;;5.07;2.20;;;;;;;5.18;100.00;97568.75;6109494;19;20066;-71
2024/03/25 08:44:21;;;;;;;6.88;2.50;;;;;;;5.14;100.00;97573.41;6108714;19;20482;-71
2024/03/25 08:46:22;;;;;;;6.63;3.20;;;;;;;5.17;100.00;97567.97;6108748;19;20011;-71
2024/03/25 08:48:22;;;;;;;5.32;1.80;;;;;;;5.14;100.00;97571.47;6109302;19;20692;-71
2024/03/25 08:50:22;;;;;;;5.43;2.33;;;;;;;5.31;100.00;97567.44;6109512;19;20670;-71
2024/03/25 08:52:22;;;;;;;7.50;2.13;;;;;;;5.41;100.00;97568.78;6108720;19;20017;-71
2024/03/25 08:54:23;;;;;;;2.22;1.60;;;;;;;5.43;100.00;97577.44;6109726;19;20040;-71
2024/03/25 08:56:23;;;;;;;5.00;2.13;;;;;;;5.17;100.00;97589.91;6108091;19;20460;-71
2024/03/25 08:58:23;;;;;;;3.92;1.67;;;;;;;4.93;100.00;97571.84;6108752;19;20365;-71
2024/03/25 09:00:27;;;;;;;4.85;1.65;;;;;;;4.95;100.00;97585.19;6109004;19;20013;-71
2024/03/25 09:02:28;;;;;;;3.40;1.50;;;;;;;4.98;100.00;97587.22;6110330;19;20010;-71
2024/03/25 09:04:28;;;;;;;4.70;1.90;;;;;;;4.54;100.00;97592.97;6109372;19;20015;-70
2024/03/25 09:06:29;;;;;;;3.92;1.63;;;;;;;4.58;100.00;97598.53;6108220;19;20018;-71
2024/03/25 09:08:36;;;;;;;3.40;1.52;;;;;;;4.48;100.00;97608.91;6108579;19;20445;-71
2024/03/25 09:12:56;;;;;;;5.63;2.33;;;;;;;3.76;100.00;97602.97;6100751;19;20026;-71
2024/03/25 09:14:57;;;;;;;2.65;1.40;;;;;;;3.68;100.00;97614.91;6100088;19;20007;-71
2024/03/25 09:16:57;;;;;;;4.38;3.08;;;;;;;3.65;100.00;97612.88;6100602;19;20018;-71
2024/03/25 09:18:57;;;;;;;2.58;1.80;;;;;;;3.60;100.00;97618.59;6101884;19;20082;-71
2024/03/25 09:20:58;;;;;;;3.83;1.73;;;;;;;3.45;100.00;97614.72;6101062;19;20078;-71
2024/03/25 09:22:58;;;;;;;3.75;2.05;;;;;;;3.47;100.00;97608.88;6102351;19;20517;-71
2024/03/25 09:24:58;;;;;;;2.38;1.70;;;;;;;3.48;100.00;97605.81;6102122;19;20017;-71
2024/03/25 09:26:59;;;;;;;2.97;1.88;;;;;;;3.46;100.00;97594.41;6100222;19;20251;-71
2024/03/25 09:28:59;;;;;;;3.63;1.92;;;;;;;3.55;100.00;97599.72;6101863;19;20010;-71
2024/03/25 09:30:59;;;;;;;5.75;2.50;;;;;;;3.56;100.00;97588.44;6102719;19;20554;-71
2024/03/25 09:33:00;;;;;;;4.50;2.17;;;;;;;3.74;100.00;97588.06;6100564;19;20010;-71
2024/03/25 09:35:00;;;;;;;4.35;2.45;;;;;;;3.94;100.00;97587.75;6100336;19;20351;-71